sensor_id;sensor_type;location;lat;lon;timestamp;pressure;altitude;pressure_sealevel;temperature;humidity
19510;BME280;9896;42.486;26.506;2022-11-15T00:00:17;100592.66;;;8.34;100.00
19510;BME280;9896;42.486;26.506;2022-11-15T00:02:43;100588.69;;;8.53;100.00
19510;BME280;9896;42.486;26.506;2022-11-15T00:05:08;100585.03;;;8.54;100.00
19510;BME280;9896;42.486;26.506;2022-11-15T00:07:33;100588.94;;;8.43;100.00
19510;BME280;9896;42.486;26.506;2022-11-15T00:09:59;100592.34;;;8.60;100.00
19510;BME280;9896;42.486;26.506;2022-11-15T00:12:24;100596.44;;;8.48;100.00
19510;BME280;9896;42.486;26.506;2022-11-15T00:14:51;100590.31;;;8.39;100.00
19510;BME280;9896;42.486;26.506;2022-11-15T00:17:17;100583.41;;;8.45;100.00
19510;BME280;9896;42.486;26.506;2022-11-15T00:19:42;100565.59;;;8.37;100.00
19510;BME280;9896;42.486;26.506;2022-11-15T00:22:08;100583.72;;;8.50;100.00
19510;BME280;9896;42.486;26.506;2022-11-15T00:24:33;100590.50;;;8.29;100.00
19510;BME280;9896;42.486;26.506;2022-11-15T00:26:59;100590.47;;;8.37;100.00
19510;BME280;9896;42.486;26.506;2022-11-15T00:29:24;100589.78;;;8.35;100.00
19510;BME280;9896;42.486;26.506;2022-11-15T00:31:49;100582.63;;;8.36;100.00
19510;BME280;9896;42.486;26.506;2022-11-15T00:34:15;100575.63;;;8.35;100.00
19510;BME280;9896;42.486;26.506;2022-11-15T00:36:40;100569.72;;;8.48;100.00
19510;BME280;9896;42.486;26.506;2022-11-15T00:39:06;100561.72;;;8.39;100.00
19510;BME280;9896;42.486;26.506;2022-11-15T00:41:31;100563.75;;;8.37;100.00
19510;BME280;9896;42.486;26.506;2022-11-15T00:43:57;100562.66;;;8.55;100.00
19510;BME280;9896;42.486;26.506;2022-11-15T00:46:22;100558.47;;;8.52;100.00
19510;BME280;9896;42.486;26.506;2022-11-15T00:48:48;100567.78;;;8.56;100.00
19510;BME280;9896;42.486;26.506;2022-11-15T00:51:13;100568.63;;;8.57;100.00
19510;BME280;9896;42.486;26.506;2022-11-15T00:53:39;100569.34;;;8.51;100.00
19510;BME280;9896;42.486;26.506;2022-11-15T00:56:04;100554.38;;;8.42;100.00
19510;BME280;9896;42.486;26.506;2022-11-15T00:58:30;100552.38;;;8.35;100.00
19510;BME280;9896;42.486;26.506;2022-11-15T01:00:55;100555.72;;;8.37;100.00
19510;BME280;9896;42.486;26.506;2022-11-15T01:03:21;100554.78;;;8.53;100.00
19510;BME280;9896;42.486;26.506;2022-11-15T01:05:46;100555.63;;;8.31;100.00
19510;BME280;9896;42.486;26.506;2022-11-15T01:08:15;100555.44;;;8.24;100.00
19510;BME280;9896;42.486;26.506;2022-11-15T01:10:41;100553.22;;;8.36;100.00
19510;BME280;9896;42.486;26.506;2022-11-15T01:13:07;100559.13;;;8.54;100.00
19510;BME280;9896;42.486;26.506;2022-11-15T01:15:33;100554.78;;;8.53;100.00
19510;BME280;9896;42.486;26.506;2022-11-15T01:17:59;100552.00;;;8.47;100.00
19510;BME280;9896;42.486;26.506;2022-11-15T01:20:24;100550.56;;;8.36;100.00
19510;BME280;9896;42.486;26.506;2022-11-15T01:22:50;100543.38;;;8.28;100.00
19510;BME280;9896;42.486;26.506;2022-11-15T01:25:15;100542.72;;;8.34;100.00
19510;BME280;9896;42.486;26.506;2022-11-15T01:27:41;100552.06;;;8.38;100.00
19510;BME280;9896;42.486;26.506;2022-11-15T01:30:07;100546.97;;;8.52;100.00
19510;BME280;9896;42.486;26.506;2022-11-15T01:32:33;100552.28;;;8.29;100.00
19510;BME280;9896;42.486;26.506;2022-11-15T01:34:59;100547.59;;;8.31;100.00
19510;BME280;9896;42.486;26.506;2022-11-15T01:37:24;100545.59;;;8.25;100.00
19510;BME280;9896;42.486;26.506;2022-11-15T01:39:49;100541.22;;;8.32;100.00
19510;BME280;9896;42.486;26.506;2022-11-15T01:42:15;100541.06;;;8.25;100.00
19510;BME280;9896;42.486;26.506;2022-11-15T01:44:48;100542.84;;;8.10;100.00
19510;BME280;9896;42.486;26.506;2022-11-15T01:47:24;100543.59;;;8.27;100.00
19510;BME280;9896;42.486;26.506;2022-11-15T01:50:01;100531.84;;;8.36;100.00
19510;BME280;9896;42.486;26.506;2022-11-15T01:52:30;100543.56;;;8.58;100.00
19510;BME280;9896;42.486;26.506;2022-11-15T01:55:20;100538.09;;;8.20;100.00
19510;BME280;9896;42.486;26.506;2022-11-15T01:57:50;100532.22;;;8.25;100.00
19510;BME280;9896;42.486;26.506;2022-11-15T02:00:16;100535.50;;;8.43;100.00
19510;BME280;9896;42.486;26.506;2022-11-15T02:02:42;100527.53;;;8.35;100.00
19510;BME280;9896;42.486;26.506;2022-11-15T02:05:08;100536.84;;;8.39;100.00
19510;BME280;9896;42.486;26.506;2022-11-15T02:07:34;100529.66;;;8.39;100.00
19510;BME280;9896;42.486;26.506;2022-11-15T02:10:13;100525.09;;;8.17;100.00
19510;BME280;9896;42.486;26.506;2022-11-15T02:12:40;100523.19;;;7.95;100.00
19510;BME280;9896;42.486;26.506;2022-11-15T02:15:07;100521.47;;;8.10;100.00
19510;BME280;9896;42.486;26.506;2022-11-15T02:26:08;100519.41;;;7.89;100.00
19510;BME280;9896;42.486;26.506;2022-11-15T02:29:01;100519.72;;;7.94;100.00
19510;BME280;9896;42.486;26.506;2022-11-15T02:37:42;100525.41;;;7.83;100.00
19510;BME280;9896;42.486;26.506;2022-11-15T02:43:08;100516.50;;;7.99;100.00
19510;BME280;9896;42.486;26.506;2022-11-15T02:46:03;100518.16;;;8.00;100.00
19510;BME280;9896;42.486;26.506;2022-11-15T02:48:32;100522.06;;;7.89;100.00
19510;BME280;9896;42.486;26.506;2022-11-15T02:50:59;100511.78;;;7.78;100.00
19510;BME280;9896;42.486;26.506;2022-11-15T02:53:26;100499.63;;;7.68;100.00
19510;BME280;9896;42.486;26.506;2022-11-15T02:55:53;100506.75;;;7.75;100.00
19510;BME280;9896;42.486;26.506;2022-11-15T03:01:30;100507.75;;;7.82;100.00
19510;BME280;9896;42.486;26.506;2022-11-15T03:06:42;100511.75;;;7.86;100.00
19510;BME280;9896;42.486;26.506;2022-11-15T03:09:20;100507.38;;;7.93;100.00
19510;BME280;9896;42.486;26.506;2022-11-15T03:12:00;100497.38;;;7.87;100.00
19510;BME280;9896;42.486;26.506;2022-11-15T03:14:46;100499.19;;;7.87;100.00
19510;BME280;9896;42.486;26.506;2022-11-15T03:17:24;100504.84;;;7.92;100.00
19510;BME280;9896;42.486;26.506;2022-11-15T03:19:54;100508.28;;;8.09;100.00
19510;BME280;9896;42.486;26.506;2022-11-15T03:22:23;100505.78;;;8.07;100.00
19510;BME280;9896;42.486;26.506;2022-11-15T03:24:57;100492.19;;;7.94;100.00
19510;BME280;9896;42.486;26.506;2022-11-15T03:27:28;100501.03;;;7.94;100.00
19510;BME280;9896;42.486;26.506;2022-11-15T03:30:00;100499.16;;;7.95;100.00
19510;BME280;9896;42.486;26.506;2022-11-15T03:32:29;100502.47;;;8.05;100.00
19510;BME280;9896;42.486;26.506;2022-11-15T03:35:05;100500.00;;;7.95;100.00
19510;BME280;9896;42.486;26.506;2022-11-15T03:37:37;100500.16;;;8.02;100.00
19510;BME280;9896;42.486;26.506;2022-11-15T03:40:06;100493.09;;;8.09;100.00
19510;BME280;9896;42.486;26.506;2022-11-15T03:47:51;100488.31;;;7.97;100.00
19510;BME280;9896;42.486;26.506;2022-11-15T03:50:20;100477.06;;;7.78;100.00
19510;BME280;9896;42.486;26.506;2022-11-15T03:52:48;100491.53;;;7.84;100.00
19510;BME280;9896;42.486;26.506;2022-11-15T03:55:19;100484.41;;;7.76;100.00
19510;BME280;9896;42.486;26.506;2022-11-15T03:57:47;100481.38;;;7.79;100.00
19510;BME280;9896;42.486;26.506;2022-11-15T04:00:13;100488.22;;;7.82;100.00
19510;BME280;9896;42.486;26.506;2022-11-15T04:02:39;100473.81;;;7.91;100.00
19510;BME280;9896;42.486;26.506;2022-11-15T04:05:04;100471.03;;;7.84;100.00
19510;BME280;9896;42.486;26.506;2022-11-15T04:07:30;100459.16;;;7.87;100.00
19510;BME280;9896;42.486;26.506;2022-11-15T04:09:55;100460.41;;;7.99;100.00
19510;BME280;9896;42.486;26.506;2022-11-15T04:12:27;100469.75;;;8.03;100.00
19510;BME280;9896;42.486;26.506;2022-11-15T04:15:00;100461.97;;;7.93;100.00
19510;BME280;9896;42.486;26.506;2022-11-15T04:17:32;100453.69;;;7.80;100.00
19510;BME280;9896;42.486;26.506;2022-11-15T04:19:58;100453.66;;;7.88;100.00
19510;BME280;9896;42.486;26.506;2022-11-15T04:22:42;100457.16;;;7.89;100.00
19510;BME280;9896;42.486;26.506;2022-11-15T04:25:26;100456.44;;;7.95;100.00
19510;BME280;9896;42.486;26.506;2022-11-15T04:27:52;100459.78;;;7.97;100.00
19510;BME280;9896;42.486;26.506;2022-11-15T04:30:17;100447.25;;;7.98;100.00
19510;BME280;9896;42.486;26.506;2022-11-15T04:32:43;100449.31;;;7.87;100.00
19510;BME280;9896;42.486;26.506;2022-11-15T04:35:08;100444.28;;;7.92;100.00
19510;BME280;9896;42.486;26.506;2022-11-15T04:37:34;100459.25;;;8.02;100.00
19510;BME280;9896;42.486;26.506;2022-11-15T04:39:59;100454.78;;;7.94;100.00
19510;BME280;9896;42.486;26.506;2022-11-15T04:42:25;100459.38;;;8.08;100.00
19510;BME280;9896;42.486;26.506;2022-11-15T04:44:51;100444.13;;;7.94;100.00
19510;BME280;9896;42.486;26.506;2022-11-15T04:47:16;100455.78;;;7.93;100.00
19510;BME280;9896;42.486;26.506;2022-11-15T04:49:42;100457.00;;;7.90;100.00
19510;BME280;9896;42.486;26.506;2022-11-15T04:52:09;100463.81;;;7.93;100.00
19510;BME280;9896;42.486;26.506;2022-11-15T04:54:34;100461.44;;;7.98;100.00
19510;BME280;9896;42.486;26.506;2022-11-15T04:57:00;100457.94;;;7.98;100.00
19510;BME280;9896;42.486;26.506;2022-11-15T04:59:25;100463.66;;;7.94;100.00
19510;BME280;9896;42.486;26.506;2022-11-15T05:01:51;100462.59;;;7.95;100.00
19510;BME280;9896;42.486;26.506;2022-11-15T05:04:16;100458.38;;;8.09;100.00
19510;BME280;9896;42.486;26.506;2022-11-15T05:06:49;100452.84;;;8.11;100.00
19510;BME280;9896;42.486;26.506;2022-11-15T05:09:15;100451.00;;;8.11;100.00
19510;BME280;9896;42.486;26.506;2022-11-15T05:11:41;100460.72;;;8.04;100.00
19510;BME280;9896;42.486;26.506;2022-11-15T05:14:07;100450.66;;;8.14;100.00
19510;BME280;9896;42.486;26.506;2022-11-15T05:16:32;100459.69;;;8.13;100.00
19510;BME280;9896;42.486;26.506;2022-11-15T05:18:58;100463.88;;;8.08;100.00
19510;BME280;9896;42.486;26.506;2022-11-15T05:21:23;100463.53;;;8.11;100.00
19510;BME280;9896;42.486;26.506;2022-11-15T05:23:49;100466.38;;;8.09;100.00
19510;BME280;9896;42.486;26.506;2022-11-15T05:26:16;100463.34;;;8.12;100.00
19510;BME280;9896;42.486;26.506;2022-11-15T05:28:43;100457.25;;;8.26;100.00
19510;BME280;9896;42.486;26.506;2022-11-15T05:31:13;100463.34;;;8.12;100.00
19510;BME280;9896;42.486;26.506;2022-11-15T05:33:40;100470.28;;;8.29;100.00
19510;BME280;9896;42.486;26.506;2022-11-15T05:38:48;100465.88;;;8.36;100.00
19510;BME280;9896;42.486;26.506;2022-11-15T05:41:17;100465.41;;;8.33;100.00
19510;BME280;9896;42.486;26.506;2022-11-15T05:43:44;100468.09;;;8.33;100.00
19510;BME280;9896;42.486;26.506;2022-11-15T05:46:12;100464.81;;;8.46;100.00
19510;BME280;9896;42.486;26.506;2022-11-15T05:48:43;100468.19;;;8.62;100.00
19510;BME280;9896;42.486;26.506;2022-11-15T05:51:12;100470.44;;;8.73;100.00
19510;BME280;9896;42.486;26.506;2022-11-15T05:53:39;100471.31;;;8.51;100.00
19510;BME280;9896;42.486;26.506;2022-11-15T05:56:05;100474.81;;;8.52;100.00
19510;BME280;9896;42.486;26.506;2022-11-15T05:58:35;100482.59;;;8.38;100.00
19510;BME280;9896;42.486;26.506;2022-11-15T06:01:01;100473.50;;;8.48;100.00
19510;BME280;9896;42.486;26.506;2022-11-15T06:03:27;100473.47;;;8.70;100.00
19510;BME280;9896;42.486;26.506;2022-11-15T06:05:52;100479.75;;;8.77;100.00
19510;BME280;9896;42.486;26.506;2022-11-15T06:08:18;100487.31;;;8.74;100.00
19510;BME280;9896;42.486;26.506;2022-11-15T06:10:43;100477.06;;;8.77;100.00
19510;BME280;9896;42.486;26.506;2022-11-15T06:13:09;100482.03;;;8.66;100.00
19510;BME280;9896;42.486;26.506;2022-11-15T06:15:34;100490.34;;;8.71;100.00
19510;BME280;9896;42.486;26.506;2022-11-15T06:18:00;100490.81;;;8.74;100.00
19510;BME280;9896;42.486;26.506;2022-11-15T06:20:28;100492.69;;;8.88;100.00
19510;BME280;9896;42.486;26.506;2022-11-15T06:23:00;100499.16;;;8.94;100.00
19510;BME280;9896;42.486;26.506;2022-11-15T06:25:27;100497.50;;;8.93;100.00
19510;BME280;9896;42.486;26.506;2022-11-15T06:27:57;100499.13;;;8.79;100.00
19510;BME280;9896;42.486;26.506;2022-11-15T06:30:24;100499.53;;;8.68;100.00
19510;BME280;9896;42.486;26.506;2022-11-15T06:32:50;100500.84;;;8.95;100.00
19510;BME280;9896;42.486;26.506;2022-11-15T06:35:16;100494.25;;;8.83;100.00
19510;BME280;9896;42.486;26.506;2022-11-15T06:37:42;100492.91;;;9.02;100.00
19510;BME280;9896;42.486;26.506;2022-11-15T06:40:09;100493.72;;;9.02;100.00
19510;BME280;9896;42.486;26.506;2022-11-15T06:42:35;100490.22;;;8.87;100.00
19510;BME280;9896;42.486;26.506;2022-11-15T06:45:00;100492.03;;;8.86;100.00
19510;BME280;9896;42.486;26.506;2022-11-15T06:47:26;100489.22;;;9.03;100.00
19510;BME280;9896;42.486;26.506;2022-11-15T06:49:51;100493.84;;;9.09;100.00
19510;BME280;9896;42.486;26.506;2022-11-15T06:52:17;100488.75;;;9.14;100.00
19510;BME280;9896;42.486;26.506;2022-11-15T06:54:46;100492.41;;;9.21;100.00
19510;BME280;9896;42.486;26.506;2022-11-15T06:57:12;100495.97;;;9.13;100.00
19510;BME280;9896;42.486;26.506;2022-11-15T06:59:37;100494.28;;;8.98;100.00
19510;BME280;9896;42.486;26.506;2022-11-15T07:02:03;100497.09;;;9.19;100.00
19510;BME280;9896;42.486;26.506;2022-11-15T07:04:29;100499.28;;;9.15;100.00
19510;BME280;9896;42.486;26.506;2022-11-15T07:06:55;100501.59;;;9.18;100.00
19510;BME280;9896;42.486;26.506;2022-11-15T07:09:21;100492.47;;;9.42;99.90
19510;BME280;9896;42.486;26.506;2022-11-15T07:11:46;100492.56;;;9.34;98.59
19510;BME280;9896;42.486;26.506;2022-11-15T07:14:12;100491.56;;;9.35;98.88
19510;BME280;9896;42.486;26.506;2022-11-15T07:16:37;100494.69;;;9.24;97.95
19510;BME280;9896;42.486;26.506;2022-11-15T07:19:03;100498.66;;;9.28;97.81
19510;BME280;9896;42.486;26.506;2022-11-15T07:21:29;100500.00;;;9.09;98.58
19510;BME280;9896;42.486;26.506;2022-11-15T07:23:54;100498.91;;;9.18;98.67
19510;BME280;9896;42.486;26.506;2022-11-15T07:26:20;100498.84;;;9.26;98.17
19510;BME280;9896;42.486;26.506;2022-11-15T07:28:45;100498.47;;;9.29;98.47
19510;BME280;9896;42.486;26.506;2022-11-15T07:31:11;100483.59;;;9.42;96.75
19510;BME280;9896;42.486;26.506;2022-11-15T07:33:36;100496.06;;;9.20;97.37
19510;BME280;9896;42.486;26.506;2022-11-15T07:36:03;100488.69;;;9.22;96.98
19510;BME280;9896;42.486;26.506;2022-11-15T07:38:29;100483.59;;;9.42;96.01
19510;BME280;9896;42.486;26.506;2022-11-15T07:40:57;100485.47;;;9.56;94.86
19510;BME280;9896;42.486;26.506;2022-11-15T07:43:23;100478.56;;;9.32;96.14
19510;BME280;9896;42.486;26.506;2022-11-15T07:45:49;100485.47;;;9.41;96.39
19510;BME280;9896;42.486;26.506;2022-11-15T07:48:15;100485.66;;;9.40;96.50
19510;BME280;9896;42.486;26.506;2022-11-15T07:50:41;100482.41;;;9.59;96.09
19510;BME280;9896;42.486;26.506;2022-11-15T07:53:08;100475.47;;;9.50;95.57
19510;BME280;9896;42.486;26.506;2022-11-15T07:55:34;100479.00;;;9.65;94.67
19510;BME280;9896;42.486;26.506;2022-11-15T07:58:04;100478.47;;;9.40;96.03
19510;BME280;9896;42.486;26.506;2022-11-15T08:00:30;100482.13;;;9.54;96.24
19510;BME280;9896;42.486;26.506;2022-11-15T08:03:12;100476.56;;;9.70;95.44
19510;BME280;9896;42.486;26.506;2022-11-15T08:05:39;100476.19;;;9.88;93.48
19510;BME280;9896;42.486;26.506;2022-11-15T08:08:06;100476.56;;;9.70;94.47
19510;BME280;9896;42.486;26.506;2022-11-15T08:10:33;100477.06;;;9.59;95.62
19510;BME280;9896;42.486;26.506;2022-11-15T08:15:25;100471.03;;;9.86;93.84
19510;BME280;9896;42.486;26.506;2022-11-15T08:18:14;100476.06;;;10.10;92.22
19510;BME280;9896;42.486;26.506;2022-11-15T08:20:40;100471.94;;;10.29;90.63
19510;BME280;9896;42.486;26.506;2022-11-15T08:23:06;100479.13;;;10.43;89.84
19510;BME280;9896;42.486;26.506;2022-11-15T08:25:33;100481.97;;;10.42;89.86
19510;BME280;9896;42.486;26.506;2022-11-15T08:28:02;100471.41;;;10.19;90.31
19510;BME280;9896;42.486;26.506;2022-11-15T08:30:29;100473.50;;;10.02;92.04
19510;BME280;9896;42.486;26.506;2022-11-15T08:32:57;100472.47;;;10.39;89.28
19510;BME280;9896;42.486;26.506;2022-11-15T08:35:23;100470.56;;;10.33;89.02
19510;BME280;9896;42.486;26.506;2022-11-15T08:37:49;100475.78;;;10.05;89.73
19510;BME280;9896;42.486;26.506;2022-11-15T08:40:15;100470.31;;;10.13;90.65
19510;BME280;9896;42.486;26.506;2022-11-15T08:42:41;100464.03;;;10.21;90.31
19510;BME280;9896;42.486;26.506;2022-11-15T08:45:07;100467.28;;;10.16;89.84
19510;BME280;9896;42.486;26.506;2022-11-15T08:47:33;100462.31;;;10.35;88.89
19510;BME280;9896;42.486;26.506;2022-11-15T08:49:59;100453.13;;;10.44;87.64
19510;BME280;9896;42.486;26.506;2022-11-15T08:52:25;100454.91;;;10.15;88.76
19510;BME280;9896;42.486;26.506;2022-11-15T08:54:50;100450.25;;;10.24;88.40
19510;BME280;9896;42.486;26.506;2022-11-15T08:57:16;100438.34;;;10.12;89.05
19510;BME280;9896;42.486;26.506;2022-11-15T08:59:42;100439.91;;;10.21;88.76
19510;BME280;9896;42.486;26.506;2022-11-15T09:02:12;100432.91;;;10.41;87.55
19510;BME280;9896;42.486;26.506;2022-11-15T09:04:40;100431.88;;;10.42;86.98
19510;BME280;9896;42.486;26.506;2022-11-15T09:07:07;100425.16;;;10.32;86.41
19510;BME280;9896;42.486;26.506;2022-11-15T09:09:32;100426.72;;;10.68;85.59
19510;BME280;9896;42.486;26.506;2022-11-15T09:11:58;100425.66;;;10.63;85.53
19510;BME280;9896;42.486;26.506;2022-11-15T09:14:23;100421.50;;;10.88;83.33
19510;BME280;9896;42.486;26.506;2022-11-15T09:16:48;100418.38;;;10.85;83.85
19510;BME280;9896;42.486;26.506;2022-11-15T09:19:14;100408.94;;;10.89;83.69
19510;BME280;9896;42.486;26.506;2022-11-15T09:21:40;100416.41;;;10.65;83.65
19510;BME280;9896;42.486;26.506;2022-11-15T09:24:05;100403.56;;;10.89;83.02
19510;BME280;9896;42.486;26.506;2022-11-15T09:26:31;100401.56;;;10.69;83.42
19510;BME280;9896;42.486;26.506;2022-11-15T09:28:56;100403.78;;;10.87;82.93
19510;BME280;9896;42.486;26.506;2022-11-15T09:31:22;100394.84;;;10.31;84.63
19510;BME280;9896;42.486;26.506;2022-11-15T09:33:47;100395.19;;;10.70;83.64
19510;BME280;9896;42.486;26.506;2022-11-15T09:36:13;100400.09;;;10.95;82.31
19510;BME280;9896;42.486;26.506;2022-11-15T09:38:38;100397.50;;;11.08;81.49
19510;BME280;9896;42.486;26.506;2022-11-15T09:41:25;100393.97;;;10.73;82.63
19510;BME280;9896;42.486;26.506;2022-11-15T09:49:55;100374.94;;;10.68;82.57
19510;BME280;9896;42.486;26.506;2022-11-15T09:52:23;100374.88;;;10.89;81.66
19510;BME280;9896;42.486;26.506;2022-11-15T09:54:51;100360.53;;;11.03;80.61
19510;BME280;9896;42.486;26.506;2022-11-15T09:57:38;100367.63;;;11.17;80.39
19510;BME280;9896;42.486;26.506;2022-11-15T10:00:19;100360.44;;;11.25;80.55
19510;BME280;9896;42.486;26.506;2022-11-15T10:03:08;100355.25;;;11.16;79.18
19510;BME280;9896;42.486;26.506;2022-11-15T10:05:57;100351.91;;;11.14;79.20
19510;BME280;9896;42.486;26.506;2022-11-15T10:08:28;100356.00;;;11.51;77.56
19510;BME280;9896;42.486;26.506;2022-11-15T10:10:59;100348.53;;;11.47;77.30
19510;BME280;9896;42.486;26.506;2022-11-15T10:13:26;100348.44;;;11.21;78.67
19510;BME280;9896;42.486;26.506;2022-11-15T10:16:01;100340.28;;;11.48;76.86
19510;BME280;9896;42.486;26.506;2022-11-15T10:21:40;100333.72;;;11.71;76.51
19510;BME280;9896;42.486;26.506;2022-11-15T10:24:11;100318.47;;;11.17;77.00
19510;BME280;9896;42.486;26.506;2022-11-15T10:26:38;100317.13;;;11.41;76.90
19510;BME280;9896;42.486;26.506;2022-11-15T10:29:03;100303.34;;;11.03;78.20
19510;BME280;9896;42.486;26.506;2022-11-15T10:31:29;100315.81;;;11.78;75.79
19510;BME280;9896;42.486;26.506;2022-11-15T10:34:11;100306.13;;;12.09;73.60
19510;BME280;9896;42.486;26.506;2022-11-15T10:36:38;100310.47;;;12.04;73.98
19510;BME280;9896;42.486;26.506;2022-11-15T10:39:03;100303.31;;;11.50;75.84
19510;BME280;9896;42.486;26.506;2022-11-15T10:41:30;100296.34;;;11.69;75.66
19510;BME280;9896;42.486;26.506;2022-11-15T10:44:07;100292.69;;;11.90;74.53
19510;BME280;9896;42.486;26.506;2022-11-15T10:46:39;100289.56;;;11.73;74.43
19510;BME280;9896;42.486;26.506;2022-11-15T10:49:17;100284.09;;;11.47;75.27
19510;BME280;9896;42.486;26.506;2022-11-15T10:51:50;100287.91;;;11.98;74.22
19510;BME280;9896;42.486;26.506;2022-11-15T10:54:27;100285.03;;;12.06;73.17
19510;BME280;9896;42.486;26.506;2022-11-15T10:56:55;100280.28;;;12.02;72.94
19510;BME280;9896;42.486;26.506;2022-11-15T10:59:30;100281.09;;;11.96;73.08
19510;BME280;9896;42.486;26.506;2022-11-15T11:01:57;100275.94;;;11.88;73.38
19510;BME280;9896;42.486;26.506;2022-11-15T11:04:23;100274.06;;;11.88;73.80
19510;BME280;9896;42.486;26.506;2022-11-15T11:06:57;100270.97;;;11.91;73.47
19510;BME280;9896;42.486;26.506;2022-11-15T11:09:33;100270.34;;;11.76;73.53
19510;BME280;9896;42.486;26.506;2022-11-15T11:12:00;100269.25;;;11.64;73.36
19510;BME280;9896;42.486;26.506;2022-11-15T11:14:29;100268.66;;;11.69;72.92
19510;BME280;9896;42.486;26.506;2022-11-15T11:19:53;100262.44;;;11.68;73.74
19510;BME280;9896;42.486;26.506;2022-11-15T11:25:00;100244.53;;;12.01;70.96
19510;BME280;9896;42.486;26.506;2022-11-15T11:36:08;100223.44;;;11.92;70.83
19510;BME280;9896;42.486;26.506;2022-11-15T11:43:57;100227.16;;;12.04;69.74
19510;BME280;9896;42.486;26.506;2022-11-15T11:49:41;100219.28;;;11.70;69.95
19510;BME280;9896;42.486;26.506;2022-11-15T11:52:23;100211.03;;;11.78;69.09
19510;BME280;9896;42.486;26.506;2022-11-15T12:00:18;100202.28;;;11.36;71.51
19510;BME280;9896;42.486;26.506;2022-11-15T12:05:46;100198.59;;;11.44;71.32
19510;BME280;9896;42.486;26.506;2022-11-15T12:10:45;100198.81;;;11.49;71.40
19510;BME280;9896;42.486;26.506;2022-11-15T12:13:16;100189.09;;;11.48;71.07
19510;BME280;9896;42.486;26.506;2022-11-15T12:18:38;100197.13;;;11.41;71.75
19510;BME280;9896;42.486;26.506;2022-11-15T12:21:41;100187.41;;;11.53;71.48
19510;BME280;9896;42.486;26.506;2022-11-15T12:27:17;100181.66;;;11.43;72.29
19510;BME280;9896;42.486;26.506;2022-11-15T12:29:48;100178.72;;;11.25;72.67
19510;BME280;9896;42.486;26.506;2022-11-15T12:34:49;100176.84;;;11.26;71.36
19510;BME280;9896;42.486;26.506;2022-11-15T12:42:42;100170.91;;;11.37;70.40
19510;BME280;9896;42.486;26.506;2022-11-15T12:47:52;100167.19;;;11.31;70.68
19510;BME280;9896;42.486;26.506;2022-11-15T12:56:09;100161.81;;;11.38;69.87
19510;BME280;9896;42.486;26.506;2022-11-15T12:58:59;100157.47;;;11.30;70.52
19510;BME280;9896;42.486;26.506;2022-11-15T13:06:51;100154.59;;;11.45;70.75
19510;BME280;9896;42.486;26.506;2022-11-15T13:12:08;100141.16;;;11.51;70.02
19510;BME280;9896;42.486;26.506;2022-11-15T13:17:12;100139.69;;;11.29;71.02
19510;BME280;9896;42.486;26.506;2022-11-15T13:19:42;100132.47;;;11.16;71.82
19510;BME280;9896;42.486;26.506;2022-11-15T13:22:10;100132.28;;;11.25;71.94
19510;BME280;9896;42.486;26.506;2022-11-15T13:24:56;100125.66;;;11.14;72.12
19510;BME280;9896;42.486;26.506;2022-11-15T13:27:22;100131.00;;;11.14;72.45
19510;BME280;9896;42.486;26.506;2022-11-15T13:29:48;100120.06;;;11.02;73.10
19510;BME280;9896;42.486;26.506;2022-11-15T13:32:15;100124.41;;;11.10;73.30
19510;BME280;9896;42.486;26.506;2022-11-15T13:34:46;100127.09;;;11.23;73.36
19510;BME280;9896;42.486;26.506;2022-11-15T13:37:32;100119.00;;;10.97;74.67
19510;BME280;9896;42.486;26.506;2022-11-15T13:40:20;100108.94;;;11.12;74.13
19510;BME280;9896;42.486;26.506;2022-11-15T13:42:46;100112.00;;;10.96;74.78
19510;BME280;9896;42.486;26.506;2022-11-15T13:45:14;100111.19;;;11.02;74.95
19510;BME280;9896;42.486;26.506;2022-11-15T13:47:40;100103.16;;;11.08;73.89
19510;BME280;9896;42.486;26.506;2022-11-15T13:50:11;100100.28;;;11.23;73.59
19510;BME280;9896;42.486;26.506;2022-11-15T13:52:38;100102.13;;;11.36;73.11
19510;BME280;9896;42.486;26.506;2022-11-15T13:55:21;100103.78;;;11.24;73.32
19510;BME280;9896;42.486;26.506;2022-11-15T13:57:57;100098.81;;;11.34;72.61
19510;BME280;9896;42.486;26.506;2022-11-15T14:00:42;100084.56;;;11.07;73.75
19510;BME280;9896;42.486;26.506;2022-11-15T14:03:27;100086.59;;;11.05;74.12
19510;BME280;9896;42.486;26.506;2022-11-15T14:06:16;100092.78;;;10.92;75.33
19510;BME280;9896;42.486;26.506;2022-11-15T14:11:27;100076.91;;;11.17;74.91
19510;BME280;9896;42.486;26.506;2022-11-15T14:19:00;100067.41;;;10.95;76.06
19510;BME280;9896;42.486;26.506;2022-11-15T14:21:26;100074.66;;;11.07;75.13
19510;BME280;9896;42.486;26.506;2022-11-15T14:23:51;100068.47;;;11.20;74.99
19510;BME280;9896;42.486;26.506;2022-11-15T14:26:33;100064.13;;;11.06;75.39
19510;BME280;9896;42.486;26.506;2022-11-15T14:29:22;100065.16;;;10.98;76.24
19510;BME280;9896;42.486;26.506;2022-11-15T14:31:47;100052.75;;;10.91;75.99
19510;BME280;9896;42.486;26.506;2022-11-15T14:34:13;100038.47;;;10.51;77.63
19510;BME280;9896;42.486;26.506;2022-11-15T14:36:38;100039.53;;;10.63;77.49
19510;BME280;9896;42.486;26.506;2022-11-15T14:39:04;100041.75;;;10.53;78.34
19510;BME280;9896;42.486;26.506;2022-11-15T14:41:34;100038.06;;;10.54;78.71
19510;BME280;9896;42.486;26.506;2022-11-15T14:44:04;100027.69;;;10.38;79.16
19510;BME280;9896;42.486;26.506;2022-11-15T14:46:30;100035.09;;;10.36;79.37
19510;BME280;9896;42.486;26.506;2022-11-15T14:48:58;100032.22;;;10.31;79.33
19510;BME280;9896;42.486;26.506;2022-11-15T14:51:23;100022.84;;;10.13;80.37
19510;BME280;9896;42.486;26.506;2022-11-15T14:53:49;100029.81;;;10.08;80.94
19510;BME280;9896;42.486;26.506;2022-11-15T14:56:15;100016.59;;;9.93;81.20